Espace membre
ImprimablePdf
La Reid, 28/05/2012, BEL - L'Ardennes Trophy
Liste des rapports > 70km - Classements
Recherche: Page: [1]
46 Entrées
 
Visualisez vos photos fournies par Sportograf en cliquant sur la petite icone située en début de ligne!

Les réclamations ne sont plus acceptées, les résultats sont considérés comme définitifs.
RangNrNomAgeIOCEquipeTempsTkmMoy.ScrLocalité
Vos photos grâce à Sportograf1.1288ZINKE Heinz53BEL3:34:313:04 19.5831DEURNE
Vos photos grâce à Sportograf2.1095VANLANGENAEKER Paul50BELJANSSEN CYCLING TEAM GENK3:44:303:13 18.7150STEVOORT
Vos photos grâce à Sportograf3.1282BAILLY Jacques57BEL3:55:073:22 17.8672AYWAILLE
Vos photos grâce à Sportograf4.1160BOONE Patrick50BEL3:58:513:25 17.5885MERKSEM
Vos photos grâce à Sportograf5.1046KOOIJMAN Marc50NLDMTB-NOORDWEST4:04:023:30 17.2194AMSTERDAM
Vos photos grâce à Sportograf6.1025VAN HAASTER Henk60NLDWV ALCMARIA VICTRIX4:10:233:35 16.77115ALKMAAR
Vos photos grâce à Sportograf7.1364PESSELSE Bert51NLDGRC JAN VAN ARCKEL4:11:523:36 16.68121GIESSENBURG
Vos photos grâce à Sportograf8.1022BROUWER Dirk54NLDHAVELTE4:12:593:37 16.60128OOSTERWOLDE FR
Vos photos grâce à Sportograf9.1197GROUY Alain50BELNOUSOOT BIKERS TEAM4:26:013:49 15.79153MONS
Vos photos grâce à Sportograf10.1514DETHIER Francis56BELGLOUMS VTT4:26:523:49 15.74158WAIMES
Vos photos grâce à Sportograf11.1165VANCAYZEELE Bernar56FRA4:27:363:50 15.70166METEREN
Vos photos grâce à Sportograf12.1172BUELENS Johan54BELHELLBIKERS4:32:143:54 15.43177ROTSELAAR
Vos photos grâce à Sportograf13.1476JANSEN Peter50NLD4:35:343:57 15.24187GELEEN
Vos photos grâce à Sportograf14.1036DOMINICUS Eric54BEL4:36:183:57 15.20192PULLE
Vos photos grâce à Sportograf15.1400VAN DEN ELZEN Theo51NLDATB TEAM VENTOUX TILBURG4:40:454:01 14.96205ROSMALEN
Vos photos grâce à Sportograf16.1069VERLYCK Thierry51FRACASSEL VTT4:43:134:03 14.83212LEZENNES
Vos photos grâce à Sportograf17.1417JACOBS Stephan51BELTRI TEAM TV4:43:554:04 14.79215
Vos photos grâce à Sportograf18.1193LINTERMANS Rik56BEL4:51:454:11 14.40229DILBEEK
Vos photos grâce à Sportograf19.1427VANDEWAUW Guido Rene52BELDIRTY BIKERS4:54:104:13 14.28234DILSEN-STOKKEM
Vos photos grâce à Sportograf20.1507SCHEPERS Willy50BEL4:56:574:15 14.14245MAASMECHELEN
Vos photos grâce à Sportograf21.1299WERY Michel51BELAMB THEUX5:01:574:19 13.91256THEUX
Vos photos grâce à Sportograf22.1459RUUD 51NLD5:02:534:20 13.87262
Vos photos grâce à Sportograf23.1264DE CNUYDT Adrien60BEL5:06:174:23 13.71272DE PINTE
Vos photos grâce à Sportograf24.1533VAN WIJKE Willie51NLDLICHT VERZET5:08:194:25 13.62276
Vos photos grâce à Sportograf25.1399LANDELOOS Roger68BEL5:10:214:27 13.53286
Vos photos grâce à Sportograf26.1316DELOOF Daniël50BEL5:14:414:30 13.35299BRUGGE
Vos photos grâce à Sportograf27.1355PIRARD Pierre53BELVC ARDENNES5:19:444:35 13.14312THEUX
Vos photos grâce à Sportograf28.1387VINCKX Leo51BEL5:19:524:35 13.13314RAVELS
Vos photos grâce à Sportograf29.1059VINCKE Rik53BELCYCLO BIKE5:27:244:41 12.83332OOSTENDE
Vos photos grâce à Sportograf30.1087VANDEMEULEBROUCKE Jean-Pierre54BELDE HERDERS5:27:264:41 12.83333AVELGEM
Vos photos grâce à Sportograf31.1491PACOLET Omer58BEL5:28:474:42 12.77336BAS-OHA
Vos photos grâce à Sportograf32.1541JANSEN Jan Hendrik51NLD5:30:484:44 12.70341
Vos photos grâce à Sportograf33.1253DUPONT Philippe54FRALES GALIBOTS5:32:074:45 12.65342LEZENNES
Vos photos grâce à Sportograf34.1037NOBELS Aldo51NLDTEAM X-TREME5:41:514:54 12.29358GOES
Vos photos grâce à Sportograf35.1176CONSTANT Albert55BELLES AMIS VTTISTES5:50:005:00 12.00369HERVE
Vos photos grâce à Sportograf36.1397SCHREURS Philip51BEL5:57:325:07 11.75380
Vos photos grâce à Sportograf37.1200GOVAERTS Frans54BEL5:58:365:08 11.71382WILLEBROEK
Vos photos grâce à Sportograf38.1513DE RAESTEILEN Dominique506:08:085:16 11.41392
Vos photos grâce à Sportograf39.1187DOCQUIER Laurent52BELNOUSOOT6:11:145:19 11.31395MONS
Vos photos grâce à Sportograf40.1552MATTHYS Alain59BEL6:19:535:26 11.06401
Vos photos grâce à Sportograf41.1518BROUNS Wally52NLD6:31:195:36 10.73411
Vos photos grâce à Sportograf42.1257JOOP Deveer51NLD7:04:326:04 9.89418UTRECHT
Vos photos grâce à SportografDNF1198DE BORST Henk51NLDLATHUM
Vos photos grâce à SportografDNF1241GLUCKMANN Frederic52BELLAMBERMONT
Vos photos grâce à SportografDNF1051VAN DEN BERG Cornelis60NLDMTB LICHT VERZETOCHTEN
Vos photos grâce à SportografDNF1354WATERSCHOOT Raoul57BEL
DNF: abandon; DSQ: disqualifié; Vitesse en km/h